createdAt,value
2023-02-11T00:01:27.394Z,70.34
2023-02-11T00:03:55.141Z,70.61
2023-02-11T00:06:22.568Z,70.58
2023-02-11T00:08:49.496Z,70.88
2023-02-11T00:11:18.437Z,70.82
2023-02-11T00:13:46.722Z,71.17
2023-02-11T00:16:16.927Z,71.11
2023-02-11T00:18:44.147Z,71.24
2023-02-11T00:21:16.504Z,71.44
2023-02-11T00:23:44.082Z,71.48
2023-02-11T00:26:21.449Z,71.85
2023-02-11T00:28:49.944Z,71.84
2023-02-11T00:31:18.900Z,71.98
2023-02-11T00:33:46.577Z,72.08
2023-02-11T00:36:22.911Z,72.19
2023-02-11T00:38:51.998Z,72.33
2023-02-11T00:41:20.143Z,72.28
2023-02-11T00:43:47.706Z,72.09
2023-02-11T00:46:15.134Z,72.50
2023-02-11T00:48:42.202Z,72.47
2023-02-11T00:51:09.961Z,72.27
2023-02-11T00:53:37.697Z,72.28
2023-02-11T00:56:05.047Z,72.45
2023-02-11T00:58:31.769Z,72.57
2023-02-11T01:00:59.059Z,72.50
2023-02-11T01:03:26.189Z,72.28
2023-02-11T01:05:53.443Z,72.23
2023-02-11T01:08:20.291Z,72.41
2023-02-11T01:10:55.991Z,72.58
2023-02-11T01:13:22.975Z,72.34
2023-02-11T01:15:50.267Z,72.80
2023-02-11T01:18:17.580Z,72.76
2023-02-11T01:20:44.632Z,72.82
2023-02-11T01:23:11.702Z,73.06
2023-02-11T01:25:38.522Z,73.17
2023-02-11T01:28:05.725Z,73.06
2023-02-11T01:30:32.584Z,73.17
2023-02-11T01:32:59.410Z,73.52
2023-02-11T01:35:26.113Z,73.32
2023-02-11T01:37:52.934Z,73.41
2023-02-11T01:40:19.786Z,73.41
2023-02-11T01:42:49.404Z,73.29
2023-02-11T01:45:46.713Z,73.44
2023-02-11T01:48:18.196Z,73.47
2023-02-11T01:50:48.417Z,73.56
2023-02-11T01:53:31.536Z,73.82
2023-02-11T01:56:13.283Z,73.97
2023-02-11T01:58:42.496Z,74.02
2023-02-11T02:01:13.147Z,73.96
2023-02-11T02:03:43.966Z,74.02
2023-02-11T02:06:15.474Z,74.41
2023-02-11T02:08:57.123Z,74.42
2023-02-11T02:11:23.981Z,74.33
2023-02-11T02:13:50.910Z,74.34
2023-02-11T02:16:21.517Z,74.28
2023-02-11T02:19:03.472Z,74.07
2023-02-11T02:22:00.120Z,74.74
2023-02-11T02:24:48.874Z,74.68
2023-02-11T02:27:29.543Z,74.48
2023-02-11T02:30:01.963Z,74.79
2023-02-11T02:32:52.475Z,74.37
2023-02-11T02:35:57.912Z,74.32
2023-02-11T02:38:44.218Z,74.18
2023-02-11T02:41:14.271Z,74.29
2023-02-11T02:43:45.264Z,74.67
2023-02-11T02:46:13.160Z,74.70
2023-02-11T02:48:40.000Z,74.59
2023-02-11T02:51:29.647Z,74.77
2023-02-11T02:54:23.819Z,74.41
2023-02-11T02:57:13.416Z,74.62
2023-02-11T02:59:53.027Z,74.47
2023-02-11T03:02:40.515Z,74.59
2023-02-11T03:05:19.636Z,74.74
2023-02-11T03:08:00.040Z,74.69
2023-02-11T03:10:31.713Z,74.88
2023-02-11T03:12:59.905Z,75.11
2023-02-11T03:15:30.827Z,74.98
2023-02-11T03:18:00.747Z,75.07
2023-02-11T03:20:28.407Z,74.64
2023-02-11T03:22:57.085Z,74.96
2023-02-11T03:25:30.506Z,74.78
2023-02-11T03:28:14.542Z,74.89
2023-02-11T03:31:09.596Z,74.53
2023-02-11T03:33:52.122Z,74.45
2023-02-11T03:36:24.526Z,74.73
2023-02-11T03:38:56.526Z,74.40
2023-02-11T03:41:24.997Z,74.39
2023-02-11T03:43:56.249Z,74.36
2023-02-11T03:46:37.702Z,74.25
2023-02-11T03:49:09.824Z,74.41
2023-02-11T03:51:37.816Z,74.21
2023-02-11T03:54:10.607Z,74.13
2023-02-11T03:56:44.173Z,74.13
2023-02-11T03:59:10.874Z,74.06
2023-02-11T04:01:37.601Z,74.03
2023-02-11T04:04:04.673Z,74.31
2023-02-11T04:06:31.417Z,74.22
2023-02-11T04:08:58.098Z,74.29
2023-02-11T04:11:24.955Z,74.48
2023-02-11T04:13:51.665Z,74.62
2023-02-11T04:16:18.397Z,74.67
2023-02-11T04:18:45.218Z,74.67
2023-02-11T04:21:12.825Z,74.57
2023-02-11T04:23:39.533Z,74.51
2023-02-11T04:26:06.786Z,74.66
2023-02-11T04:28:35.033Z,74.69
2023-02-11T04:31:02.116Z,74.46
2023-02-11T04:33:29.362Z,74.59
2023-02-11T04:35:56.104Z,74.82
2023-02-11T04:38:24.332Z,74.69
2023-02-11T04:40:51.704Z,74.27
2023-02-11T04:43:18.494Z,74.36
2023-02-11T04:45:45.246Z,74.31
2023-02-11T04:48:12.016Z,74.60
2023-02-11T04:50:38.766Z,74.52
2023-02-11T04:53:05.483Z,73.92
2023-02-11T04:55:32.285Z,74.28
2023-02-11T04:57:59.003Z,74.07
2023-02-11T05:00:25.702Z,74.23
2023-02-11T05:02:52.406Z,73.94
2023-02-11T05:05:19.240Z,73.82
2023-02-11T05:07:46.065Z,73.86
2023-02-11T05:10:12.709Z,74.04
2023-02-11T05:12:39.571Z,74.09
2023-02-11T05:15:06.645Z,73.83
2023-02-11T05:17:33.628Z,73.80
2023-02-11T05:20:00.407Z,73.95
2023-02-11T05:22:27.174Z,73.84
2023-02-11T05:24:54.421Z,73.94
2023-02-11T05:27:21.119Z,73.98
2023-02-11T05:29:47.812Z,73.85
2023-02-11T05:32:14.659Z,73.80
2023-02-11T05:34:41.363Z,73.87
2023-02-11T05:37:08.178Z,73.72
2023-02-11T05:39:35.295Z,73.70
2023-02-11T05:42:02.057Z,73.70
2023-02-11T05:44:28.748Z,73.53
2023-02-11T05:46:55.505Z,73.58
2023-02-11T05:49:22.248Z,73.48
2023-02-11T05:51:49.458Z,73.42
2023-02-11T05:54:16.904Z,73.22
2023-02-11T05:56:44.900Z,73.52
2023-02-11T05:59:14.603Z,73.29
2023-02-11T06:01:42.087Z,73.30
2023-02-11T06:04:09.021Z,73.11
2023-02-11T06:06:35.831Z,73.26
2023-02-11T06:09:03.152Z,72.87
2023-02-11T06:11:29.870Z,73.00
2023-02-11T06:13:56.731Z,73.02
2023-02-11T06:16:23.537Z,72.87
2023-02-11T06:18:50.260Z,72.82
2023-02-11T06:21:17.132Z,72.92
2023-02-11T06:23:44.144Z,72.98
2023-02-11T06:26:17.817Z,73.21
2023-02-11T06:28:44.758Z,73.11
2023-02-11T06:31:12.353Z,72.99
2023-02-11T06:33:39.424Z,73.01
2023-02-11T06:36:14.378Z,72.94
2023-02-11T06:38:41.226Z,73.00
2023-02-11T06:41:13.569Z,72.94
2023-02-11T06:43:41.354Z,72.94
2023-02-11T06:46:08.433Z,72.86
2023-02-11T06:48:36.168Z,72.93
2023-02-11T06:51:05.319Z,72.71
2023-02-11T06:53:35.547Z,72.39
2023-02-11T06:56:07.676Z,72.63
2023-02-11T06:58:34.485Z,72.25
2023-02-11T07:01:06.814Z,72.17
2023-02-11T07:03:38.683Z,71.99
2023-02-11T07:06:08.160Z,72.18
2023-02-11T07:08:36.976Z,71.73
2023-02-11T07:11:17.659Z,71.67
2023-02-11T07:13:44.368Z,71.98
2023-02-11T07:16:14.748Z,71.64
2023-02-11T07:18:42.148Z,71.76
2023-02-11T07:21:11.183Z,71.69
2023-02-11T07:23:39.653Z,70.78
2023-02-11T07:26:12.690Z,71.11
2023-02-11T07:28:40.601Z,70.99
2023-02-11T07:31:13.493Z,70.74
2023-02-11T07:33:40.994Z,70.39
2023-02-11T07:36:10.267Z,70.41
2023-02-11T07:38:37.655Z,70.15
2023-02-11T07:41:07.533Z,70.17
2023-02-11T07:43:34.873Z,70.10
2023-02-11T07:46:09.779Z,70.27
2023-02-11T07:48:36.597Z,69.77
2023-02-11T07:51:08.496Z,69.24
2023-02-11T07:53:35.261Z,69.59
2023-02-11T07:56:04.203Z,69.83
2023-02-11T07:58:31.425Z,69.79
2023-02-11T08:01:02.965Z,69.50
2023-02-11T08:03:30.256Z,69.68
2023-02-11T08:05:57.012Z,69.47
2023-02-11T08:08:27.905Z,69.70
2023-02-11T08:10:54.753Z,69.50
2023-02-11T08:13:21.531Z,69.27
2023-02-11T08:15:48.795Z,69.44
2023-02-11T08:18:15.721Z,69.50
2023-02-11T08:20:42.458Z,68.99
2023-02-11T08:23:09.498Z,69.17
2023-02-11T08:25:36.324Z,68.97
2023-02-11T08:28:03.103Z,68.82
2023-02-11T08:30:29.946Z,68.96
2023-02-11T08:32:56.808Z,68.64
2023-02-11T08:35:23.877Z,68.41
2023-02-11T08:37:50.682Z,68.14
2023-02-11T08:40:17.546Z,67.80
2023-02-11T08:42:44.354Z,67.77
2023-02-11T08:45:12.666Z,67.43
2023-02-11T08:47:40.073Z,67.62
2023-02-11T08:50:07.113Z,67.36
2023-02-11T08:52:33.868Z,67.25
2023-02-11T08:55:00.700Z,67.10
2023-02-11T08:57:27.871Z,66.48
2023-02-11T08:59:54.628Z,66.81
2023-02-11T09:02:21.484Z,66.97
2023-02-11T09:04:48.250Z,66.44
2023-02-11T09:07:14.940Z,66.02
2023-02-11T09:09:41.705Z,65.67
2023-02-11T09:12:08.423Z,65.88
2023-02-11T09:14:35.322Z,65.54
2023-02-11T09:17:02.233Z,65.27
2023-02-11T09:19:29.012Z,65.15
2023-02-11T09:21:55.809Z,64.00
2023-02-11T09:24:22.604Z,64.22
2023-02-11T09:26:49.805Z,63.96
2023-02-11T09:29:16.838Z,63.55
2023-02-11T09:31:43.826Z,62.68
2023-02-11T09:34:11.722Z,62.36
2023-02-11T09:36:41.281Z,62.18
2023-02-11T09:39:17.432Z,61.87
2023-02-11T09:42:04.390Z,60.98
2023-02-11T09:44:36.518Z,60.19
2023-02-11T09:47:07.790Z,59.65
2023-02-11T09:49:44.398Z,60.00
2023-02-11T09:52:28.837Z,59.90
2023-02-11T09:54:58.581Z,59.83
2023-02-11T09:57:43.696Z,59.33
2023-02-11T10:00:42.703Z,58.68
2023-02-11T10:03:49.112Z,58.96
2023-02-11T10:06:29.864Z,58.21
2023-02-11T10:09:05.513Z,58.78
2023-02-11T10:11:42.366Z,58.02
2023-02-11T10:14:25.783Z,58.15
2023-02-11T10:17:21.846Z,58.40
2023-02-11T10:20:20.684Z,57.69
2023-02-11T10:22:50.589Z,57.82
2023-02-11T10:25:25.449Z,57.53
2023-02-11T10:27:55.616Z,57.35
2023-02-11T10:30:26.612Z,57.49
2023-02-11T10:33:02.487Z,56.94
2023-02-11T10:35:29.235Z,56.77
2023-02-11T10:37:56.345Z,56.67
2023-02-11T10:40:26.038Z,56.62
2023-02-11T10:42:56.291Z,56.31
2023-02-11T10:45:25.827Z,56.76
2023-02-11T10:47:53.414Z,56.43
2023-02-11T10:50:24.878Z,56.04
2023-02-11T10:52:51.847Z,55.58
2023-02-11T10:55:18.769Z,55.46
2023-02-11T10:57:58.061Z,55.59
2023-02-11T11:00:34.263Z,55.70
2023-02-11T11:03:01.992Z,55.71
2023-02-11T11:05:35.726Z,55.56
2023-02-11T11:08:06.653Z,55.24
2023-02-11T11:10:43.549Z,55.49
2023-02-11T11:13:24.239Z,55.30
2023-02-11T11:16:15.383Z,55.16
2023-02-11T11:18:44.967Z,55.35
2023-02-11T11:21:33.716Z,55.35
2023-02-11T11:24:03.464Z,55.44
2023-02-11T11:26:43.468Z,55.17
2023-02-11T11:29:27.040Z,55.12
2023-02-11T11:31:58.138Z,54.76
2023-02-11T11:34:43.566Z,54.37
2023-02-11T11:37:30.363Z,54.42
2023-02-11T11:40:02.603Z,54.07
2023-02-11T11:42:38.208Z,54.21
2023-02-11T11:45:25.997Z,54.13
2023-02-11T11:48:05.309Z,53.93
2023-02-11T11:50:44.327Z,53.55
2023-02-11T11:53:16.554Z,53.67
2023-02-11T11:55:59.764Z,54.01
2023-02-11T11:58:30.929Z,54.30
2023-02-11T12:00:57.686Z,53.73
2023-02-11T12:03:36.710Z,53.69
2023-02-11T12:06:03.719Z,53.63
2023-02-11T12:08:43.508Z,53.61
2023-02-11T12:11:15.908Z,53.59
2023-02-11T12:13:59.257Z,53.59
2023-02-11T12:16:49.365Z,53.64
2023-02-11T12:19:44.121Z,53.85
2023-02-11T12:22:38.720Z,53.61
2023-02-11T12:25:19.429Z,53.48
2023-02-11T12:28:04.955Z,53.63
2023-02-11T12:30:34.738Z,53.39
2023-02-11T12:33:15.327Z,53.93
2023-02-11T12:35:56.820Z,53.74
2023-02-11T12:38:52.848Z,54.34
2023-02-11T12:41:52.115Z,54.42
2023-02-11T12:44:56.471Z,54.85
2023-02-11T12:47:39.765Z,55.22
2023-02-11T12:50:30.330Z,55.01
2023-02-11T12:53:26.947Z,55.35
2023-02-11T12:56:05.433Z,55.56
2023-02-11T12:58:44.971Z,55.70
2023-02-11T13:01:18.357Z,55.73
2023-02-11T13:04:40.760Z,56.12
2023-02-11T13:07:19.902Z,56.37
2023-02-11T13:09:55.665Z,56.54
2023-02-11T13:12:38.146Z,57.00
2023-02-11T13:15:13.056Z,56.86
2023-02-11T13:18:01.246Z,57.19
2023-02-11T13:20:54.201Z,57.44
2023-02-11T13:23:34.813Z,57.53
2023-02-11T13:26:21.636Z,57.79
2023-02-11T13:29:06.977Z,58.31
2023-02-11T13:31:33.794Z,58.47
2023-02-11T13:34:01.137Z,58.54
2023-02-11T13:36:33.556Z,58.74
2023-02-11T13:39:03.760Z,59.10
2023-02-11T13:41:30.455Z,59.36
2023-02-11T13:44:04.940Z,59.47
2023-02-11T13:46:49.927Z,59.69
2023-02-11T13:49:33.523Z,60.19
2023-02-11T13:52:03.045Z,60.41
2023-02-11T13:54:38.309Z,61.02
2023-02-11T13:57:30.780Z,61.07
2023-02-11T14:00:02.281Z,61.15
2023-02-11T14:02:48.176Z,61.41
2023-02-11T14:05:40.984Z,61.28
2023-02-11T14:08:21.728Z,61.69
2023-02-11T14:10:51.327Z,61.31
2023-02-11T14:13:22.225Z,61.97
2023-02-11T14:15:49.205Z,62.35
2023-02-11T14:18:43.968Z,62.25
2023-02-11T14:21:17.777Z,62.80
2023-02-11T14:23:46.265Z,62.97
2023-02-11T14:26:22.118Z,63.19
2023-02-11T14:29:14.763Z,63.02
2023-02-11T14:31:49.538Z,63.54
2023-02-11T14:34:39.484Z,63.91
2023-02-11T14:37:17.024Z,63.78
2023-02-11T14:39:52.884Z,64.19
2023-02-11T14:42:22.774Z,64.57
2023-02-11T14:44:51.030Z,64.57
2023-02-11T14:47:23.564Z,64.87
2023-02-11T14:49:50.820Z,65.03
2023-02-11T14:52:28.709Z,65.41
2023-02-11T14:55:17.799Z,65.74
2023-02-11T14:57:45.988Z,65.92
2023-02-11T15:00:20.311Z,66.01
2023-02-11T15:02:47.772Z,66.06
2023-02-11T15:05:29.230Z,66.64
2023-02-11T15:08:02.091Z,66.29
2023-02-11T15:10:36.243Z,66.59
2023-02-11T15:13:04.994Z,66.64
2023-02-11T15:15:33.470Z,67.12
2023-02-11T15:18:03.003Z,67.08
2023-02-11T15:20:32.775Z,67.43
2023-02-11T15:23:03.156Z,67.51
2023-02-11T15:25:32.381Z,68.03
2023-02-11T15:28:01.049Z,67.75
2023-02-11T15:30:32.139Z,67.82
2023-02-11T15:33:03.219Z,68.35
2023-02-11T15:35:35.255Z,68.66
2023-02-11T15:38:02.284Z,69.18
2023-02-11T15:40:34.795Z,69.55
2023-02-11T15:43:04.345Z,69.69
2023-02-11T15:45:35.121Z,69.63
2023-02-11T15:48:15.765Z,70.09
2023-02-11T15:50:49.239Z,70.47
2023-02-11T15:53:30.691Z,71.28
2023-02-11T15:56:17.327Z,71.32
2023-02-11T15:58:47.858Z,71.63
2023-02-11T16:01:15.062Z,72.55
2023-02-11T16:03:43.509Z,71.76
2023-02-11T16:06:17.997Z,72.98
2023-02-11T16:08:57.535Z,72.89
2023-02-11T16:11:31.929Z,73.26
2023-02-11T16:14:00.731Z,73.53
2023-02-11T16:16:34.061Z,73.45
2023-02-11T16:19:06.072Z,73.76
2023-02-11T16:21:45.510Z,74.18
2023-02-11T16:24:28.076Z,74.03
2023-02-11T16:27:00.771Z,74.79
2023-02-11T16:29:30.411Z,75.11
2023-02-11T16:32:21.656Z,75.21
2023-02-11T16:34:49.242Z,75.49
2023-02-11T16:37:16.774Z,75.60
2023-02-11T16:39:43.739Z,75.92
2023-02-11T16:42:12.306Z,76.07
2023-02-11T16:44:40.611Z,76.15
2023-02-11T16:47:15.070Z,76.16
2023-02-11T16:49:43.052Z,76.93
2023-02-11T16:52:14.732Z,76.68
2023-02-11T16:54:42.277Z,76.82
2023-02-11T16:57:18.294Z,77.46
2023-02-11T16:59:45.810Z,77.93
2023-02-11T17:02:25.596Z,77.91
2023-02-11T17:04:54.196Z,78.09
2023-02-11T17:07:21.081Z,77.99
2023-02-11T17:09:47.822Z,78.23
2023-02-11T17:12:14.761Z,78.32
2023-02-11T17:14:41.479Z,78.75
2023-02-11T17:17:09.921Z,78.86
2023-02-11T17:19:37.833Z,79.23
2023-02-11T17:22:05.122Z,79.11
2023-02-11T17:24:32.209Z,79.52
2023-02-11T17:26:59.229Z,79.85
2023-02-11T17:29:26.431Z,79.74
2023-02-11T17:31:54.204Z,79.53
2023-02-11T17:34:22.546Z,79.96
2023-02-11T17:36:49.959Z,80.13
2023-02-11T17:39:16.799Z,79.90
2023-02-11T17:41:43.660Z,80.14
2023-02-11T17:44:16.403Z,80.27
2023-02-11T17:46:43.857Z,80.32
2023-02-11T17:49:12.202Z,80.07
2023-02-11T17:51:40.359Z,80.24
2023-02-11T17:54:11.178Z,80.26
2023-02-11T17:56:38.545Z,80.46
2023-02-11T17:59:08.469Z,80.24
2023-02-11T18:01:37.331Z,80.70
2023-02-11T18:04:05.137Z,80.30
2023-02-11T18:06:33.895Z,80.68
2023-02-11T18:09:02.615Z,81.09
2023-02-11T18:11:30.811Z,80.88
2023-02-11T18:14:02.598Z,80.54
2023-02-11T18:16:30.663Z,81.21
2023-02-11T18:18:58.983Z,81.11
2023-02-11T18:21:26.406Z,81.27
2023-02-11T18:23:53.777Z,80.95
2023-02-11T18:26:22.210Z,81.34
2023-02-11T18:28:49.071Z,81.14
2023-02-11T18:31:16.046Z,81.02
2023-02-11T18:33:43.756Z,81.19
2023-02-11T18:36:13.830Z,81.26
2023-02-11T18:38:41.988Z,81.34
2023-02-11T18:41:08.808Z,81.54
2023-02-11T18:43:36.376Z,81.63
2023-02-11T18:46:07.798Z,81.56
2023-02-11T18:48:35.120Z,81.64
2023-02-11T18:51:02.059Z,81.31
2023-02-11T18:53:28.778Z,81.57
2023-02-11T18:55:55.829Z,81.74
2023-02-11T18:58:22.652Z,81.83
2023-02-11T19:00:50.030Z,81.88
2023-02-11T19:03:17.326Z,82.12
2023-02-11T19:05:49.795Z,81.77
2023-02-11T19:08:17.496Z,82.23
2023-02-11T19:10:47.016Z,82.02
2023-02-11T19:13:14.418Z,82.39
2023-02-11T19:15:45.663Z,82.40
2023-02-11T19:18:14.331Z,82.44
2023-02-11T19:20:43.228Z,82.49
2023-02-11T19:23:11.014Z,82.51
2023-02-11T19:25:44.533Z,82.70
2023-02-11T19:28:11.377Z,82.46
2023-02-11T19:30:38.346Z,82.98
2023-02-11T19:33:05.582Z,82.97
2023-02-11T19:35:36.278Z,83.08
2023-02-11T19:38:04.197Z,82.67
2023-02-11T19:40:31.591Z,83.14
2023-02-11T19:42:58.604Z,83.28
2023-02-11T19:45:27.047Z,83.08
2023-02-11T19:47:57.736Z,83.28
2023-02-11T19:50:25.186Z,83.23
2023-02-11T19:52:51.982Z,83.16
2023-02-11T19:55:18.822Z,83.53
2023-02-11T19:57:45.688Z,83.48
2023-02-11T20:00:13.032Z,83.64
2023-02-11T20:02:40.669Z,83.83
2023-02-11T20:05:07.778Z,83.78
2023-02-11T20:07:35.037Z,83.83
2023-02-11T20:10:02.119Z,83.83
2023-02-11T20:12:28.943Z,84.00
2023-02-11T20:14:55.764Z,83.57
2023-02-11T20:17:22.546Z,84.04
2023-02-11T20:19:49.229Z,83.86
2023-02-11T20:22:16.083Z,84.19
2023-02-11T20:24:42.910Z,84.18
2023-02-11T20:27:11.536Z,83.97
2023-02-11T20:29:39.380Z,84.46
2023-02-11T20:32:07.673Z,84.57
2023-02-11T20:34:34.806Z,84.39
2023-02-11T20:37:02.284Z,84.15
2023-02-11T20:39:30.226Z,84.36
2023-02-11T20:41:58.225Z,84.67
2023-02-11T20:44:25.400Z,84.66
2023-02-11T20:46:54.450Z,84.62
2023-02-11T20:49:24.097Z,84.70
2023-02-11T20:51:54.017Z,84.69
2023-02-11T20:54:22.455Z,84.97
2023-02-11T20:56:51.312Z,84.91
2023-02-11T20:59:19.369Z,84.92
2023-02-11T21:01:49.171Z,84.80
2023-02-11T21:04:19.949Z,84.90
2023-02-11T21:06:49.329Z,84.92
2023-02-11T21:09:22.162Z,85.01
2023-02-11T21:11:51.572Z,84.89
2023-02-11T21:14:19.138Z,85.07
2023-02-11T21:16:47.423Z,85.00
2023-02-11T21:19:14.655Z,85.43
2023-02-11T21:21:41.942Z,84.88
2023-02-11T21:24:10.255Z,85.18
2023-02-11T21:26:37.533Z,85.04
2023-02-11T21:29:06.190Z,85.17
2023-02-11T21:31:34.463Z,85.46
2023-02-11T21:34:01.823Z,85.08
2023-02-11T21:36:30.131Z,85.42
2023-02-11T21:38:57.032Z,85.57
2023-02-11T21:41:25.081Z,85.74
2023-02-11T21:43:52.884Z,85.62
2023-02-11T21:46:21.050Z,85.69
2023-02-11T21:48:49.017Z,85.97
2023-02-11T21:51:19.137Z,85.63
2023-02-11T21:53:46.244Z,85.91
2023-02-11T21:56:16.039Z,85.86
2023-02-11T21:58:42.948Z,85.78
2023-02-11T22:01:21.566Z,86.12
2023-02-11T22:03:48.499Z,85.84
2023-02-11T22:06:21.335Z,86.42
2023-02-11T22:08:49.736Z,86.37
2023-02-11T22:11:17.053Z,86.04
2023-02-11T22:13:44.681Z,86.01
2023-02-11T22:16:14.792Z,86.10
2023-02-11T22:18:42.289Z,86.17
2023-02-11T22:21:17.110Z,86.06
2023-02-11T22:23:44.311Z,86.25
2023-02-11T22:26:15.023Z,86.14
2023-02-11T22:28:42.858Z,86.28
2023-02-11T22:31:18.010Z,86.30
2023-02-11T22:33:45.452Z,86.27
2023-02-11T22:36:34.700Z,86.00
2023-02-11T22:39:09.187Z,86.57
2023-02-11T22:41:35.915Z,86.32
2023-02-11T22:44:02.764Z,86.43
2023-02-11T22:46:30.035Z,86.41
2023-02-11T22:48:56.972Z,86.45
2023-02-11T22:51:26.937Z,86.43
2023-02-11T22:53:56.100Z,86.75
2023-02-11T22:56:24.420Z,86.36
2023-02-11T22:58:52.249Z,86.72
2023-02-11T23:01:19.949Z,86.47
2023-02-11T23:03:46.824Z,86.52
2023-02-11T23:06:13.673Z,86.57
2023-02-11T23:08:42.992Z,86.65
2023-02-11T23:11:17.071Z,86.45
2023-02-11T23:13:45.608Z,86.51
2023-02-11T23:16:17.389Z,86.91
2023-02-11T23:18:46.457Z,86.67
2023-02-11T23:21:29.227Z,86.50
2023-02-11T23:23:58.689Z,86.71
2023-02-11T23:26:26.423Z,86.76
2023-02-11T23:28:53.510Z,86.71
2023-02-11T23:31:23.880Z,87.22
2023-02-11T23:33:51.273Z,87.11
2023-02-11T23:36:19.527Z,87.15
2023-02-11T23:38:46.705Z,87.05
2023-02-11T23:41:14.272Z,87.00
2023-02-11T23:43:41.433Z,86.91
2023-02-11T23:46:09.380Z,86.83
2023-02-11T23:48:36.683Z,87.26
2023-02-11T23:51:04.405Z,87.00
2023-02-11T23:53:31.185Z,87.21
2023-02-11T23:55:58.476Z,86.96
2023-02-11T23:58:25.274Z,87.38
